The Mystery Machine — FGG7538 — position and weather

sailwx.info

Track history (hours):
 
Tides and Currents Weather Stations Pressure Air Temp Water Temp Dewpoint Dewpoint Depression Visibility Wind Speed Wind Dir Waves Ship Positions

The Mystery Machine

Last reported at 2014-Mar-14 19:10 UTC. Time now 2014-Nov-01 11:45 UTC.
Position N 17°54' W 062°51'.
Warning: this ship's position is months out of date.

Length 12 m.

Type: Pleasure craft. MMSI: 329008060.

Date/timePositionNaut miles runAvg speedWind from/ knotsBaromVisibWave heightAir tempDewpointWater temp
2014-Mar-14 19:10N 17°54' W 062°51'0 0.0
2014-Mar-14 17:16N 17°54' W 062°51'0 0.0
2014-Mar-14 16:28N 17°54' W 062°51'0 0.0
2014-Mar-14 15:28N 17°54' W 062°51'0 0.0
2014-Mar-14 14:28N 17°54' W 062°51'0 0.0
2014-Mar-14 13:28N 17°54' W 062°51'0 0.0
2014-Mar-14 12:28N 17°54' W 062°51'0 0.0
2014-Mar-14 11:28N 17°54' W 062°51'0 0.0
2014-Mar-14 06:28N 17°54' W 062°51'0 0.0
2014-Mar-14 05:28N 17°54' W 062°51'0 0.0
2014-Mar-14 04:28N 17°54' W 062°51'0 0.0
2014-Mar-14 03:28N 17°54' W 062°51'0 0.0
2014-Mar-14 02:22N 17°54' W 062°51'0 0.0
2014-Mar-14 01:28N 17°54' W 062°51'0 0.0
2014-Mar-14 00:28N 17°54' W 062°51'0 0.0
2014-Mar-13 23:28N 17°54' W 062°51'7 0.3
2014-Mar-12 21:09N 17°51' W 062°44'610.6
2014-Mar-12 20:33N 17°53' W 062°50'1 1.3
2014-Mar-12 19:30N 17°54' W 062°51'0 0.0
2014-Mar-12 18:30N 17°54' W 062°51'0 0.0
2014-Mar-12 17:30N 17°54' W 062°51'0 0.0
2014-Mar-12 16:30N 17°54' W 062°51'0 0.0
2014-Mar-12 15:30N 17°54' W 062°51'0 0.0
2014-Mar-12 14:30N 17°54' W 062°51'0 0.0
2014-Mar-12 13:30N 17°54' W 062°51'0 0.0
2014-Mar-12 12:24N 17°54' W 062°51'0 0.0
2014-Mar-12 11:30N 17°54' W 062°51'0 0.0
2014-Mar-12 10:30N 17°54' W 062°51'0 0.0
2014-Mar-12 09:30N 17°54' W 062°51'0 0.0
2014-Mar-12 08:30N 17°54' W 062°51'0 0.0
2014-Mar-12 07:30N 17°54' W 062°51'0 0.0
2014-Mar-12 06:30N 17°54' W 062°51'0 0.0
2014-Mar-12 05:30N 17°54' W 062°51'0 0.0
2014-Mar-12 04:30N 17°54' W 062°51'0 0.0
2014-Mar-12 03:30N 17°54' W 062°51'0 0.0
2014-Mar-12 02:30N 17°54' W 062°51'0 0.0
2014-Mar-12 01:30N 17°54' W 062°51'0 0.0
2014-Mar-12 00:30N 17°54' W 062°51'0 0.0
2014-Mar-11 23:30N 17°54' W 062°51'0 0.0
2014-Mar-11 22:30N 17°54' W 062°51'0 0.0
2014-Mar-11 21:24N 17°54' W 062°51'0 0.0
2014-Mar-11 20:33N 17°54' W 062°51'2 1.9
2014-Mar-11 19:32N 17°55' W 062°52'2 0.1
2014-Mar-11 01:32N 17°54' W 062°51'0 0.0
2014-Mar-11 00:32N 17°54' W 062°51'0 0.0
2014-Mar-10 17:08N 17°54' W 062°51'0 0.0
2014-Mar-10 15:32N 17°54' W 062°51'0 0.0
2014-Mar-10 14:32N 17°54' W 062°51'0 0.0
2014-Mar-10 13:32N 17°54' W 062°51'0 0.0
2014-Mar-10 12:32N 17°54' W 062°51'0 0.0
2014-Mar-10 11:33N 17°54' W 062°51'0 0.0
2014-Mar-10 09:33N 17°54' W 062°51'0 0.0
2014-Mar-10 08:33N 17°54' W 062°51'0 0.0
2014-Mar-10 07:33N 17°54' W 062°51'0 0.0
2014-Mar-10 06:33N 17°54' W 062°51'0 0.0
2014-Mar-10 05:33N 17°54' W 062°51'0 0.0
2014-Mar-10 04:33N 17°54' W 062°51'0 0.0
2014-Mar-10 03:33N 17°54' W 062°51'0 0.0
2014-Mar-10 02:33N 17°54' W 062°51'0 0.0
2014-Mar-10 01:33N 17°54' W 062°51'0 0.0
2014-Mar-10 00:33N 17°54' W 062°51'0 0.0
2014-Mar-09 23:33N 17°54' W 062°51'0 0.0
2014-Mar-09 22:33N 17°54' W 062°51'0 0.0
2014-Mar-09 21:33N 17°54' W 062°51'0 0.0
2014-Mar-09 20:33N 17°54' W 062°51'0 0.0
2014-Mar-09 19:33N 17°54' W 062°51'0 0.0
2014-Mar-09 18:33N 17°54' W 062°51'0 0.0
2014-Mar-09 17:33N 17°54' W 062°51'0 0.0
2014-Mar-09 16:33N 17°54' W 062°51'0 0.0
2014-Mar-09 15:33N 17°54' W 062°51'0 0.0
2014-Mar-09 14:33N 17°54' W 062°51'0 0.0
2014-Mar-09 13:33N 17°54' W 062°51'0 0.0
2014-Mar-09 12:33N 17°54' W 062°51'0 0.0
2014-Mar-09 11:33N 17°54' W 062°51'0 0.0
2014-Mar-09 10:33N 17°54' W 062°51'0 0.0
2014-Mar-09 09:33N 17°54' W 062°51'0 0.0
2014-Mar-09 08:33N 17°54' W 062°51'0 0.0
2014-Mar-09 07:33N 17°54' W 062°51'0 0.0
2014-Mar-09 06:33N 17°54' W 062°51'0 0.0
2014-Mar-09 05:33N 17°54' W 062°51'0 0.0
2014-Mar-09 04:33N 17°54' W 062°51'0 0.0
2014-Mar-09 03:33N 17°54' W 062°51'0 0.0
2014-Mar-09 02:33N 17°54' W 062°51'0 0.0
2014-Mar-09 01:33N 17°54' W 062°51'0 0.0
2014-Mar-09 00:33N 17°54' W 062°51'0 0.0
2014-Mar-08 23:33N 17°54' W 062°51'0 0.0
2014-Mar-08 22:33N 17°54' W 062°51'0 0.0
2014-Mar-08 21:33N 17°54' W 062°51'0 0.0
2014-Mar-08 20:51N 17°54' W 062°51'0 0.0
2014-Mar-08 20:33N 17°54' W 062°51'0 0.0
2014-Mar-08 19:33N 17°54' W 062°51'0 0.0
2014-Mar-08 18:33N 17°54' W 062°51'0 0.0
2014-Mar-08 17:33N 17°54' W 062°51'0 0.0
2014-Mar-08 16:33N 17°54' W 062°51'0 0.0
2014-Mar-08 15:33N 17°54' W 062°51'0 0.0
2014-Mar-08 14:33N 17°54' W 062°51'0 0.0
2014-Mar-08 13:33N 17°54' W 062°51'0 0.0
2014-Mar-08 12:33N 17°54' W 062°51'0 0.0
2014-Mar-08 11:33N 17°54' W 062°51'0 0.0
2014-Mar-08 10:33N 17°54' W 062°51'0 0.0
2014-Mar-08 09:33N 17°54' W 062°51'0 0.0
2014-Mar-08 08:33N 17°54' W 062°51'0 0.0
2014-Mar-08 07:33N 17°54' W 062°51'0 0.0
2014-Mar-08 06:33N 17°54' W 062°51'0 0.0
2014-Mar-08 05:33N 17°54' W 062°51'0 0.0
2014-Mar-08 04:33N 17°54' W 062°51'0 0.0
2014-Mar-08 03:33N 17°54' W 062°51'0 0.0
2014-Mar-08 02:33N 17°54' W 062°51'0 0.0
2014-Mar-08 01:33N 17°54' W 062°51'0 0.0
2014-Mar-08 00:27N 17°54' W 062°51'0 0.0
2014-Mar-07 23:33N 17°54' W 062°51'0 0.0
2014-Mar-07 22:33N 17°54' W 062°51'0 0.0
2014-Mar-07 21:33N 17°54' W 062°51'0 0.0
2014-Mar-07 20:33N 17°54' W 062°51'0 0.0
2014-Mar-07 19:33N 17°54' W 062°51'0 0.0
2014-Mar-07 18:33N 17°54' W 062°51'0 0.0
2014-Mar-07 16:33N 17°54' W 062°51'0 0.0
2014-Mar-07 15:33N 17°54' W 062°51'0 0.0
2014-Mar-07 14:33N 17°54' W 062°51'0 0.0
2014-Mar-07 13:33N 17°54' W 062°51'0 0.0
2014-Mar-07 11:27N 17°54' W 062°51'0 0.0
2014-Mar-07 10:33N 17°54' W 062°51'0 0.0
2014-Mar-07 09:33N 17°54' W 062°51'0 0.0
2014-Mar-07 08:33N 17°54' W 062°51'0 0.0
2014-Mar-07 07:33N 17°54' W 062°51'0 0.0
2014-Mar-07 06:33N 17°54' W 062°51'0 0.0
2014-Mar-07 05:33N 17°54' W 062°51'0 0.0
2014-Mar-07 04:33N 17°54' W 062°51'0 0.0
2014-Mar-07 03:27N 17°54' W 062°51'0 0.0
2014-Mar-07 02:33N 17°54' W 062°51'0 0.0
2014-Mar-07 01:33N 17°54' W 062°51'0 0.0
2014-Mar-07 00:33N 17°54' W 062°51'0 0.0
2014-Mar-06 23:33N 17°54' W 062°51'0 0.0
2014-Mar-06 22:33N 17°54' W 062°51'0 0.0
2014-Mar-06 21:33N 17°54' W 062°51'7 7.0
2014-Mar-06 20:33N 17°59' W 062°57'6 1.9
2014-Mar-06 17:14N 18°03' W 063°01'3 0.9
2014-Mar-06 14:08N 18°01' W 063°03'3 4.6
2014-Mar-06 13:33N 18°03' W 063°01'0 0.1
2014-Mar-06 11:16N 18°03' W 063°01'0 0.0
2014-Mar-06 05:22N 18°03' W 063°01'0 0.0
2014-Mar-06 02:16N 18°03' W 063°01'2 0.3
2014-Mar-05 20:33N 18°02' W 062°59'11 5.4
2014-Mar-05 18:26N 17°54' W 062°51'0 0.0
2014-Mar-05 17:32N 17°54' W 062°51'0 0.0
2014-Mar-05 16:32N 17°54' W 062°51'0 0.0
2014-Mar-05 15:32N 17°54' W 062°51'0 0.0
2014-Mar-05 14:32N 17°54' W 062°51'0 0.0
2014-Mar-05 13:32N 17°54' W 062°51'0 0.0
2014-Mar-05 12:32N 17°54' W 062°51'0 0.0
2014-Mar-05 11:32N 17°54' W 062°51'0 0.0
2014-Mar-05 10:32N 17°54' W 062°51'0 0.0
2014-Mar-05 09:32N 17°54' W 062°51'0 0.0
2014-Mar-05 08:32N 17°54' W 062°51'0 0.0
2014-Mar-05 07:26N 17°54' W 062°51'0 0.0
2014-Mar-05 06:32N 17°54' W 062°51'0 0.0
2014-Mar-05 05:32N 17°54' W 062°51'0 0.0
2014-Mar-05 04:32N 17°54' W 062°51'0 0.0
2014-Mar-05 03:32N 17°54' W 062°51'0 0.0
2014-Mar-05 02:32N 17°54' W 062°51'0 0.0
2014-Mar-05 01:32N 17°54' W 062°51'0 0.0
2014-Mar-05 00:32N 17°54' W 062°51'0 0.0
2014-Mar-04 23:32N 17°54' W 062°51'0 0.0
2014-Mar-04 22:32N 17°54' W 062°51'0 0.0
2014-Mar-04 21:32N 17°54' W 062°51'0 0.0
2014-Mar-04 20:32N 17°54' W 062°51'0 0.0
2014-Mar-04 19:26N 17°54' W 062°51'  
Track history (hours):
 
Tides and Currents Weather Stations Pressure Air Temp Water Temp Dewpoint Dewpoint Depression Visibility Wind Speed Wind Dir Waves Ship Positions

The Mystery Machine

Last reported at 2014-Mar-14 19:10 UTC. Time now 2014-Nov-01 11:45 UTC.
Position N 17°54' W 062°51'.
Warning: this ship's position is months out of date.

Length 12 m.

Type: Pleasure craft. MMSI: 329008060.

Date/timePositionNaut miles runAvg speedWind from/ knotsBaromVisibWave heightAir tempDewpointWater temp
2014-Mar-14 19:10N 17°54' W 062°51'0 0.0
2014-Mar-14 17:16N 17°54' W 062°51'0 0.0
2014-Mar-14 16:28N 17°54' W 062°51'0 0.0
2014-Mar-14 15:28N 17°54' W 062°51'0 0.0
2014-Mar-14 14:28N 17°54' W 062°51'0 0.0
2014-Mar-14 13:28N 17°54' W 062°51'0 0.0
2014-Mar-14 12:28N 17°54' W 062°51'0 0.0
2014-Mar-14 11:28N 17°54' W 062°51'0 0.0
2014-Mar-14 06:28N 17°54' W 062°51'0 0.0
2014-Mar-14 05:28N 17°54' W 062°51'0 0.0
2014-Mar-14 04:28N 17°54' W 062°51'0 0.0
2014-Mar-14 03:28N 17°54' W 062°51'0 0.0
2014-Mar-14 02:22N 17°54' W 062°51'0 0.0
2014-Mar-14 01:28N 17°54' W 062°51'0 0.0
2014-Mar-14 00:28N 17°54' W 062°51'0 0.0
2014-Mar-13 23:28N 17°54' W 062°51'7 0.3
2014-Mar-12 21:09N 17°51' W 062°44'610.6
2014-Mar-12 20:33N 17°53' W 062°50'1 1.3
2014-Mar-12 19:30N 17°54' W 062°51'0 0.0
2014-Mar-12 18:30N 17°54' W 062°51'0 0.0
2014-Mar-12 17:30N 17°54' W 062°51'0 0.0
2014-Mar-12 16:30N 17°54' W 062°51'0 0.0
2014-Mar-12 15:30N 17°54' W 062°51'0 0.0
2014-Mar-12 14:30N 17°54' W 062°51'0 0.0
2014-Mar-12 13:30N 17°54' W 062°51'0 0.0
2014-Mar-12 12:24N 17°54' W 062°51'0 0.0
2014-Mar-12 11:30N 17°54' W 062°51'0 0.0
2014-Mar-12 10:30N 17°54' W 062°51'0 0.0
2014-Mar-12 09:30N 17°54' W 062°51'0 0.0
2014-Mar-12 08:30N 17°54' W 062°51'0 0.0
2014-Mar-12 07:30N 17°54' W 062°51'0 0.0
2014-Mar-12 06:30N 17°54' W 062°51'0 0.0
2014-Mar-12 05:30N 17°54' W 062°51'0 0.0
2014-Mar-12 04:30N 17°54' W 062°51'0 0.0
2014-Mar-12 03:30N 17°54' W 062°51'0 0.0
2014-Mar-12 02:30N 17°54' W 062°51'0 0.0
2014-Mar-12 01:30N 17°54' W 062°51'0 0.0
2014-Mar-12 00:30N 17°54' W 062°51'0 0.0
2014-Mar-11 23:30N 17°54' W 062°51'0 0.0
2014-Mar-11 22:30N 17°54' W 062°51'0 0.0
2014-Mar-11 21:24N 17°54' W 062°51'0 0.0
2014-Mar-11 20:33N 17°54' W 062°51'2 1.9
2014-Mar-11 19:32N 17°55' W 062°52'2 0.1
2014-Mar-11 01:32N 17°54' W 062°51'0 0.0
2014-Mar-11 00:32N 17°54' W 062°51'0 0.0
2014-Mar-10 17:08N 17°54' W 062°51'0 0.0
2014-Mar-10 15:32N 17°54' W 062°51'0 0.0
2014-Mar-10 14:32N 17°54' W 062°51'0 0.0
2014-Mar-10 13:32N 17°54' W 062°51'0 0.0
2014-Mar-10 12:32N 17°54' W 062°51'0 0.0
2014-Mar-10 11:33N 17°54' W 062°51'0 0.0
2014-Mar-10 09:33N 17°54' W 062°51'0 0.0
2014-Mar-10 08:33N 17°54' W 062°51'0 0.0
2014-Mar-10 07:33N 17°54' W 062°51'0 0.0
2014-Mar-10 06:33N 17°54' W 062°51'0 0.0
2014-Mar-10 05:33N 17°54' W 062°51'0 0.0
2014-Mar-10 04:33N 17°54' W 062°51'0 0.0
2014-Mar-10 03:33N 17°54' W 062°51'0 0.0
2014-Mar-10 02:33N 17°54' W 062°51'0 0.0
2014-Mar-10 01:33N 17°54' W 062°51'0 0.0
2014-Mar-10 00:33N 17°54' W 062°51'0 0.0
2014-Mar-09 23:33N 17°54' W 062°51'0 0.0
2014-Mar-09 22:33N 17°54' W 062°51'0 0.0
2014-Mar-09 21:33N 17°54' W 062°51'0 0.0
2014-Mar-09 20:33N 17°54' W 062°51'0 0.0
2014-Mar-09 19:33N 17°54' W 062°51'0 0.0
2014-Mar-09 18:33N 17°54' W 062°51'0 0.0
2014-Mar-09 17:33N 17°54' W 062°51'0 0.0
2014-Mar-09 16:33N 17°54' W 062°51'0 0.0
2014-Mar-09 15:33N 17°54' W 062°51'0 0.0
2014-Mar-09 14:33N 17°54' W 062°51'0 0.0
2014-Mar-09 13:33N 17°54' W 062°51'0 0.0
2014-Mar-09 12:33N 17°54' W 062°51'0 0.0
2014-Mar-09 11:33N 17°54' W 062°51'0 0.0
2014-Mar-09 10:33N 17°54' W 062°51'0 0.0
2014-Mar-09 09:33N 17°54' W 062°51'0 0.0
2014-Mar-09 08:33N 17°54' W 062°51'0 0.0
2014-Mar-09 07:33N 17°54' W 062°51'0 0.0
2014-Mar-09 06:33N 17°54' W 062°51'0 0.0
2014-Mar-09 05:33N 17°54' W 062°51'0 0.0
2014-Mar-09 04:33N 17°54' W 062°51'0 0.0
2014-Mar-09 03:33N 17°54' W 062°51'0 0.0
2014-Mar-09 02:33N 17°54' W 062°51'0 0.0
2014-Mar-09 01:33N 17°54' W 062°51'0 0.0
2014-Mar-09 00:33N 17°54' W 062°51'0 0.0
2014-Mar-08 23:33N 17°54' W 062°51'0 0.0
2014-Mar-08 22:33N 17°54' W 062°51'0 0.0
2014-Mar-08 21:33N 17°54' W 062°51'0 0.0
2014-Mar-08 20:51N 17°54' W 062°51'0 0.0
2014-Mar-08 20:33N 17°54' W 062°51'0 0.0
2014-Mar-08 19:33N 17°54' W 062°51'0 0.0
2014-Mar-08 18:33N 17°54' W 062°51'0 0.0
2014-Mar-08 17:33N 17°54' W 062°51'0 0.0
2014-Mar-08 16:33N 17°54' W 062°51'0 0.0
2014-Mar-08 15:33N 17°54' W 062°51'0 0.0
2014-Mar-08 14:33N 17°54' W 062°51'0 0.0
2014-Mar-08 13:33N 17°54' W 062°51'0 0.0
2014-Mar-08 12:33N 17°54' W 062°51'0 0.0
2014-Mar-08 11:33N 17°54' W 062°51'0 0.0
2014-Mar-08 10:33N 17°54' W 062°51'0 0.0
2014-Mar-08 09:33N 17°54' W 062°51'0 0.0
2014-Mar-08 08:33N 17°54' W 062°51'0 0.0
2014-Mar-08 07:33N 17°54' W 062°51'0 0.0
2014-Mar-08 06:33N 17°54' W 062°51'0 0.0
2014-Mar-08 05:33N 17°54' W 062°51'0 0.0
2014-Mar-08 04:33N 17°54' W 062°51'0 0.0
2014-Mar-08 03:33N 17°54' W 062°51'0 0.0
2014-Mar-08 02:33N 17°54' W 062°51'0 0.0
2014-Mar-08 01:33N 17°54' W 062°51'0 0.0
2014-Mar-08 00:27N 17°54' W 062°51'0 0.0
2014-Mar-07 23:33N 17°54' W 062°51'0 0.0
2014-Mar-07 22:33N 17°54' W 062°51'0 0.0
2014-Mar-07 21:33N 17°54' W 062°51'0 0.0
2014-Mar-07 20:33N 17°54' W 062°51'0 0.0
2014-Mar-07 19:33N 17°54' W 062°51'0 0.0
2014-Mar-07 18:33N 17°54' W 062°51'0 0.0
2014-Mar-07 16:33N 17°54' W 062°51'0 0.0
2014-Mar-07 15:33N 17°54' W 062°51'0 0.0
2014-Mar-07 14:33N 17°54' W 062°51'0 0.0
2014-Mar-07 13:33N 17°54' W 062°51'0 0.0
2014-Mar-07 11:27N 17°54' W 062°51'0 0.0
2014-Mar-07 10:33N 17°54' W 062°51'0 0.0
2014-Mar-07 09:33N 17°54' W 062°51'0 0.0
2014-Mar-07 08:33N 17°54' W 062°51'0 0.0
2014-Mar-07 07:33N 17°54' W 062°51'0 0.0
2014-Mar-07 06:33N 17°54' W 062°51'0 0.0
2014-Mar-07 05:33N 17°54' W 062°51'0 0.0
2014-Mar-07 04:33N 17°54' W 062°51'0 0.0
2014-Mar-07 03:27N 17°54' W 062°51'0 0.0
2014-Mar-07 02:33N 17°54' W 062°51'0 0.0
2014-Mar-07 01:33N 17°54' W 062°51'0 0.0
2014-Mar-07 00:33N 17°54' W 062°51'0 0.0
2014-Mar-06 23:33N 17°54' W 062°51'0 0.0
2014-Mar-06 22:33N 17°54' W 062°51'0 0.0
2014-Mar-06 21:33N 17°54' W 062°51'7 7.0
2014-Mar-06 20:33N 17°59' W 062°57'6 1.9
2014-Mar-06 17:14N 18°03' W 063°01'3 0.9
2014-Mar-06 14:08N 18°01' W 063°03'3 4.6
2014-Mar-06 13:33N 18°03' W 063°01'0 0.1
2014-Mar-06 11:16N 18°03' W 063°01'0 0.0
2014-Mar-06 05:22N 18°03' W 063°01'0 0.0
2014-Mar-06 02:16N 18°03' W 063°01'2 0.3
2014-Mar-05 20:33N 18°02' W 062°59'11 5.4
2014-Mar-05 18:26N 17°54' W 062°51'0 0.0
2014-Mar-05 17:32N 17°54' W 062°51'0 0.0
2014-Mar-05 16:32N 17°54' W 062°51'0 0.0
2014-Mar-05 15:32N 17°54' W 062°51'0 0.0
2014-Mar-05 14:32N 17°54' W 062°51'0 0.0
2014-Mar-05 13:32N 17°54' W 062°51'0 0.0
2014-Mar-05 12:32N 17°54' W 062°51'0 0.0
2014-Mar-05 11:32N 17°54' W 062°51'0 0.0
2014-Mar-05 10:32N 17°54' W 062°51'0 0.0
2014-Mar-05 09:32N 17°54' W 062°51'0 0.0
2014-Mar-05 08:32N 17°54' W 062°51'0 0.0
2014-Mar-05 07:26N 17°54' W 062°51'0 0.0
2014-Mar-05 06:32N 17°54' W 062°51'0 0.0
2014-Mar-05 05:32N 17°54' W 062°51'0 0.0
2014-Mar-05 04:32N 17°54' W 062°51'0 0.0
2014-Mar-05 03:32N 17°54' W 062°51'0 0.0
2014-Mar-05 02:32N 17°54' W 062°51'0 0.0
2014-Mar-05 01:32N 17°54' W 062°51'0 0.0
2014-Mar-05 00:32N 17°54' W 062°51'0 0.0
2014-Mar-04 23:32N 17°54' W 062°51'0 0.0
2014-Mar-04 22:32N 17°54' W 062°51'0 0.0
2014-Mar-04 21:32N 17°54' W 062°51'0 0.0
2014-Mar-04 20:32N 17°54' W 062°51'0 0.0
2014-Mar-04 19:26N 17°54' W 062°51'  

Dump ship's entire track history